createdAt,value
2017-05-23T00:00:30.323Z,6.15
2017-05-23T00:02:58.621Z,5.65
2017-05-23T00:05:26.891Z,5.87
2017-05-23T00:07:55.205Z,8.23
2017-05-23T00:10:23.522Z,6.02
2017-05-23T00:12:51.822Z,6.32
2017-05-23T00:15:20.089Z,6.07
2017-05-23T00:17:48.389Z,6.02
2017-05-23T00:20:16.683Z,6.50
2017-05-23T00:22:44.207Z,7.08
2017-05-23T00:25:12.492Z,6.60
2017-05-23T00:27:40.759Z,6.85
2017-05-23T00:30:09.038Z,8.18
2017-05-23T00:32:37.652Z,6.83
2017-05-23T00:35:05.991Z,6.37
2017-05-23T00:37:34.254Z,6.58
2017-05-23T00:40:02.551Z,6.85
2017-05-23T00:42:31.583Z,6.38
2017-05-23T00:44:59.875Z,6.60
2017-05-23T00:47:28.141Z,6.45
2017-05-23T00:49:56.425Z,5.43
2017-05-23T00:52:24.707Z,6.75
2017-05-23T00:54:53.007Z,6.27
2017-05-23T00:57:21.264Z,7.87
2017-05-23T00:59:49.519Z,6.35
2017-05-23T01:02:17.811Z,6.80
2017-05-23T01:04:46.080Z,6.72
2017-05-23T01:07:14.354Z,6.82
2017-05-23T01:09:42.623Z,6.18
2017-05-23T01:12:10.910Z,7.07
2017-05-23T01:14:39.222Z,6.42
2017-05-23T01:17:07.486Z,6.82
2017-05-23T01:19:35.795Z,6.42
2017-05-23T01:22:04.115Z,7.18
2017-05-23T01:24:32.395Z,7.38
2017-05-23T01:27:00.663Z,7.42
2017-05-23T01:29:28.944Z,6.60
2017-05-23T01:31:57.222Z,6.48
2017-05-23T01:34:25.495Z,6.73
2017-05-23T01:36:53.784Z,7.67
2017-05-23T01:39:22.092Z,7.17
2017-05-23T01:41:50.371Z,6.75
2017-05-23T01:44:18.668Z,7.07
2017-05-23T01:46:46.945Z,7.25
2017-05-23T01:49:15.233Z,7.25
2017-05-23T01:51:43.535Z,7.22
2017-05-23T01:54:11.810Z,7.92
2017-05-23T01:56:40.096Z,7.62
2017-05-23T01:59:08.366Z,6.77
2017-05-23T02:01:36.647Z,7.25
2017-05-23T02:04:04.907Z,6.98
2017-05-23T02:06:33.229Z,7.00
2017-05-23T02:09:01.496Z,7.63
2017-05-23T02:11:29.762Z,7.57
2017-05-23T02:13:58.048Z,7.87
2017-05-23T02:16:26.326Z,7.35
2017-05-23T02:18:54.618Z,7.28
2017-05-23T02:21:22.909Z,6.63
2017-05-23T02:23:51.261Z,7.42
2017-05-23T02:26:19.549Z,7.67
2017-05-23T02:28:47.825Z,6.47
2017-05-23T02:31:16.114Z,7.30
2017-05-23T02:33:44.411Z,7.10
2017-05-23T02:36:12.705Z,6.87
2017-05-23T02:38:40.998Z,8.90
2017-05-23T02:41:09.286Z,7.43
2017-05-23T02:43:37.580Z,7.68
2017-05-23T02:46:05.872Z,6.98
2017-05-23T02:48:34.340Z,6.53
2017-05-23T02:51:02.625Z,6.82
2017-05-23T02:53:30.918Z,7.15
2017-05-23T02:55:59.319Z,6.35
2017-05-23T02:58:27.626Z,6.58
2017-05-23T03:00:55.888Z,6.45
2017-05-23T03:03:24.168Z,7.17
2017-05-23T03:05:52.568Z,6.47
2017-05-23T03:08:20.881Z,5.82
2017-05-23T03:10:49.215Z,7.48
2017-05-23T03:13:17.502Z,6.68
2017-05-23T03:15:45.763Z,6.55
2017-05-23T03:18:14.071Z,6.52
2017-05-23T03:20:42.358Z,6.18
2017-05-23T03:23:10.684Z,6.35
2017-05-23T03:25:39.005Z,6.43
2017-05-23T03:28:07.277Z,5.78
2017-05-23T03:30:35.559Z,7.22
2017-05-23T03:33:04.119Z,7.18
2017-05-23T03:35:32.399Z,6.07
2017-05-23T03:38:00.710Z,7.27
2017-05-23T03:40:28.997Z,7.22
2017-05-23T03:42:57.278Z,6.32
2017-05-23T03:45:25.578Z,6.92
2017-05-23T03:47:53.871Z,6.53
2017-05-23T03:50:22.182Z,6.93
2017-05-23T03:52:50.475Z,6.35
2017-05-23T03:55:18.764Z,7.20
2017-05-23T03:57:47.049Z,7.48
2017-05-23T04:00:15.311Z,7.10
2017-05-23T04:02:43.634Z,5.98
2017-05-23T04:05:11.918Z,6.45
2017-05-23T04:07:40.180Z,6.67
2017-05-23T04:10:08.444Z,8.23
2017-05-23T04:12:36.732Z,6.83
2017-05-23T04:15:05.067Z,6.65
2017-05-23T04:17:33.352Z,7.62
2017-05-23T04:20:01.632Z,8.00
2017-05-23T04:22:29.910Z,6.87
2017-05-23T04:24:58.190Z,7.07
2017-05-23T04:27:26.570Z,7.20
2017-05-23T04:29:54.863Z,6.30
2017-05-23T04:32:23.160Z,6.95
2017-05-23T04:34:51.444Z,6.38
2017-05-23T04:37:19.726Z,7.02
2017-05-23T04:39:47.999Z,7.32
2017-05-23T04:42:16.283Z,7.15
2017-05-23T04:44:44.589Z,8.63
2017-05-23T04:47:12.861Z,7.75
2017-05-23T04:49:41.136Z,7.27
2017-05-23T04:52:09.439Z,8.02
2017-05-23T04:54:37.739Z,8.20
2017-05-23T04:57:06.024Z,6.75
2017-05-23T04:59:34.331Z,8.10
2017-05-23T05:02:02.654Z,7.32
2017-05-23T05:04:30.966Z,6.27
2017-05-23T05:06:59.258Z,7.03
2017-05-23T05:09:27.525Z,7.48
2017-05-23T05:11:55.806Z,7.72
2017-05-23T05:14:24.124Z,8.80
2017-05-23T05:16:52.407Z,7.55
2017-05-23T05:19:20.682Z,7.77
2017-05-23T05:21:49.021Z,7.25
2017-05-23T05:24:17.321Z,8.03
2017-05-23T05:26:45.634Z,8.23
2017-05-23T05:29:13.934Z,7.72
2017-05-23T05:31:42.216Z,8.58
2017-05-23T05:34:10.514Z,9.72
2017-05-23T05:36:38.801Z,8.77
2017-05-23T05:39:07.106Z,7.92
2017-05-23T05:41:34.630Z,9.35
2017-05-23T05:44:02.943Z,8.67
2017-05-23T05:46:31.227Z,7.43
2017-05-23T05:48:59.522Z,7.52
2017-05-23T05:51:27.802Z,9.47
2017-05-23T05:53:58.700Z,8.68
2017-05-23T05:56:27.008Z,10.35
2017-05-23T05:58:55.309Z,8.35
2017-05-23T06:01:23.624Z,8.97
2017-05-23T06:03:51.897Z,8.70
2017-05-23T06:06:20.207Z,10.27
2017-05-23T06:08:48.495Z,8.88
2017-05-23T06:11:16.769Z,9.25
2017-05-23T06:13:50.757Z,9.27
2017-05-23T06:16:19.409Z,7.87
2017-05-23T06:18:47.711Z,9.15
2017-05-23T06:21:16.063Z,8.32
2017-05-23T06:23:44.468Z,9.48
2017-05-23T06:26:12.754Z,8.60
2017-05-23T06:28:41.319Z,7.48
2017-05-23T06:31:09.614Z,8.27
2017-05-23T06:33:37.895Z,7.48
2017-05-23T06:36:06.175Z,7.42
2017-05-23T06:38:34.499Z,8.17
2017-05-23T06:41:02.795Z,7.98
2017-05-23T06:43:31.086Z,8.58
2017-05-23T06:45:59.359Z,8.03
2017-05-23T06:48:27.654Z,7.62
2017-05-23T06:50:55.928Z,8.30
2017-05-23T06:53:24.272Z,8.33
2017-05-23T06:55:52.558Z,8.05
2017-05-23T06:58:20.851Z,8.22
2017-05-23T07:00:49.140Z,8.92
2017-05-23T07:03:17.431Z,7.05
2017-05-23T07:05:45.761Z,7.43
2017-05-23T07:08:14.077Z,7.13
2017-05-23T07:10:42.379Z,9.85
2017-05-23T07:13:10.748Z,8.07
2017-05-23T07:15:39.021Z,7.03
2017-05-23T07:18:07.333Z,7.87
2017-05-23T07:20:35.651Z,7.88
2017-05-23T07:23:03.923Z,7.35
2017-05-23T07:25:32.205Z,7.08
2017-05-23T07:28:00.552Z,6.27
2017-05-23T07:30:28.849Z,7.18
2017-05-23T07:32:57.125Z,7.10
2017-05-23T07:35:25.393Z,7.67
2017-05-23T07:37:53.695Z,7.47
2017-05-23T07:40:21.983Z,7.73
2017-05-23T07:42:50.264Z,7.87
2017-05-23T07:45:18.560Z,7.80
2017-05-23T07:47:46.851Z,7.77
2017-05-23T07:50:15.186Z,6.62
2017-05-23T07:52:43.522Z,6.85
2017-05-23T07:55:11.808Z,6.48
2017-05-23T07:57:40.117Z,6.75
2017-05-23T08:00:08.437Z,6.23
2017-05-23T08:02:36.727Z,5.82
2017-05-23T08:05:05.014Z,6.10
2017-05-23T08:07:33.306Z,6.43
2017-05-23T08:10:01.619Z,6.05
2017-05-23T08:12:29.910Z,5.48
2017-05-23T08:14:58.191Z,7.17
2017-05-23T08:17:26.508Z,6.87
2017-05-23T08:19:54.797Z,6.75
2017-05-23T08:22:23.187Z,6.53
2017-05-23T08:24:51.471Z,5.45
2017-05-23T08:27:19.789Z,5.65
2017-05-23T08:29:48.066Z,6.68
2017-05-23T08:32:16.363Z,6.52
2017-05-23T08:34:44.665Z,5.75
2017-05-23T08:37:12.961Z,4.70
2017-05-23T08:39:41.253Z,5.85
2017-05-23T08:42:09.581Z,7.68
2017-05-23T08:44:37.870Z,5.65
2017-05-23T08:47:06.148Z,6.25
2017-05-23T08:49:35.157Z,8.92
2017-05-23T08:52:03.474Z,6.20
2017-05-23T08:54:31.822Z,4.75
2017-05-23T08:57:00.111Z,5.18
2017-05-23T08:59:28.448Z,4.93
2017-05-23T09:01:56.732Z,4.23
2017-05-23T09:04:25.847Z,4.30
2017-05-23T09:06:54.121Z,4.48
2017-05-23T09:09:22.413Z,3.68
2017-05-23T09:11:50.703Z,3.80
2017-05-23T09:14:18.983Z,4.00
2017-05-23T09:16:47.285Z,4.73
2017-05-23T09:19:15.550Z,3.52
2017-05-23T09:21:43.847Z,3.93
2017-05-23T09:24:12.179Z,4.13
2017-05-23T09:26:46.241Z,3.72
2017-05-23T09:29:14.530Z,3.53
2017-05-23T09:31:42.886Z,3.68
2017-05-23T09:34:11.976Z,3.25
2017-05-23T09:36:40.280Z,3.22
2017-05-23T09:39:09.236Z,3.03
2017-05-23T09:41:37.531Z,3.25
2017-05-23T09:44:05.817Z,3.05
2017-05-23T09:46:34.107Z,3.65
2017-05-23T09:49:02.415Z,2.50
2017-05-23T09:51:30.774Z,3.05
2017-05-23T09:53:59.046Z,2.40
2017-05-23T09:56:27.368Z,3.15
2017-05-23T09:58:55.667Z,2.50
2017-05-23T10:01:23.929Z,2.98
2017-05-23T10:03:52.207Z,2.47
2017-05-23T10:06:20.522Z,3.97
2017-05-23T10:08:48.802Z,3.47
2017-05-23T10:11:17.090Z,3.42
2017-05-23T10:13:45.408Z,3.20
2017-05-23T10:16:13.720Z,3.63
2017-05-23T10:18:42.011Z,3.77
2017-05-23T10:21:10.303Z,3.95
2017-05-23T10:23:38.595Z,3.22
2017-05-23T10:26:07.265Z,3.77
2017-05-23T10:28:35.610Z,3.67
2017-05-23T10:31:03.902Z,3.67
2017-05-23T10:33:32.200Z,3.78
2017-05-23T10:36:00.471Z,3.57
2017-05-23T10:38:30.551Z,4.13
2017-05-23T10:40:58.824Z,3.95
2017-05-23T10:43:27.174Z,3.73
2017-05-23T10:45:55.443Z,3.82
2017-05-23T10:48:23.776Z,3.77
2017-05-23T10:50:52.098Z,4.20
2017-05-23T10:53:20.378Z,3.75
2017-05-23T10:55:48.716Z,3.35
2017-05-23T10:58:17.021Z,3.80
2017-05-23T11:00:45.309Z,4.23
2017-05-23T11:03:13.595Z,4.20
2017-05-23T11:05:41.892Z,3.57
2017-05-23T11:08:10.180Z,3.45
2017-05-23T11:10:38.541Z,3.62
2017-05-23T11:13:06.833Z,4.50
2017-05-23T11:15:35.133Z,4.15
2017-05-23T11:18:03.432Z,4.07
2017-05-23T11:20:31.833Z,4.35
2017-05-23T11:23:00.119Z,2.97
2017-05-23T11:25:28.386Z,2.86
2017-05-23T11:27:56.719Z,3.78
2017-05-23T11:30:25.156Z,2.90
2017-05-23T11:32:53.458Z,2.56
2017-05-23T11:35:21.737Z,2.82
2017-05-23T11:37:50.056Z,2.76
2017-05-23T11:40:18.346Z,2.60
2017-05-23T11:42:46.628Z,2.50
2017-05-23T11:45:14.997Z,3.20
2017-05-23T11:47:43.320Z,2.46
2017-05-23T11:50:10.846Z,2.36
2017-05-23T11:52:39.136Z,2.14
2017-05-23T11:55:07.451Z,2.72
2017-05-23T11:57:35.761Z,2.32
2017-05-23T12:00:04.028Z,2.90
2017-05-23T12:02:32.356Z,2.26
2017-05-23T12:04:59.899Z,2.32
2017-05-23T12:07:28.184Z,2.46
2017-05-23T12:09:56.512Z,2.14
2017-05-23T12:12:24.834Z,2.10
2017-05-23T12:14:53.117Z,2.32
2017-05-23T12:17:21.409Z,2.00
2017-05-23T12:19:49.679Z,3.26
2017-05-23T12:22:17.958Z,2.42
2017-05-23T12:24:46.278Z,1.70
2017-05-23T12:27:14.582Z,2.12
2017-05-23T12:29:42.871Z,2.44
2017-05-23T12:32:11.139Z,2.16
2017-05-23T12:34:39.421Z,1.80
2017-05-23T12:37:07.696Z,2.36
2017-05-23T12:39:36.013Z,2.00
2017-05-23T12:42:04.311Z,2.48
2017-05-23T12:44:32.583Z,2.28
2017-05-23T12:47:00.863Z,2.50
2017-05-23T12:49:29.157Z,2.50
2017-05-23T12:51:57.671Z,2.58
2017-05-23T12:54:25.959Z,2.36
2017-05-23T12:56:54.243Z,2.40
2017-05-23T12:59:22.527Z,2.38
2017-05-23T13:01:50.814Z,2.62
2017-05-23T13:04:19.151Z,2.43
2017-05-23T13:06:47.448Z,3.87
2017-05-23T13:09:15.744Z,2.02
2017-05-23T13:11:44.026Z,2.72
2017-05-23T13:14:12.315Z,2.05
2017-05-23T13:16:40.603Z,2.68
2017-05-23T13:19:08.891Z,2.90
2017-05-23T13:21:37.157Z,2.62
2017-05-23T13:24:05.461Z,2.48
2017-05-23T13:26:33.727Z,3.55
2017-05-23T13:29:02.029Z,2.73
2017-05-23T13:31:30.322Z,2.80
2017-05-23T13:33:58.604Z,2.72
2017-05-23T13:36:27.059Z,3.32
2017-05-23T13:38:55.344Z,3.25
2017-05-23T13:41:23.610Z,3.10
2017-05-23T13:43:51.913Z,2.63
2017-05-23T13:46:20.368Z,2.98
2017-05-23T13:48:48.639Z,2.80
2017-05-23T13:51:16.951Z,3.02
2017-05-23T13:53:45.254Z,3.20
2017-05-23T13:56:13.556Z,3.55
2017-05-23T13:58:41.840Z,3.28
2017-05-23T14:01:10.139Z,2.27
2017-05-23T14:03:38.416Z,3.27
2017-05-23T14:06:06.802Z,3.30
2017-05-23T14:08:35.095Z,2.83
2017-05-23T14:11:03.411Z,3.07
2017-05-23T14:13:30.919Z,4.00
2017-05-23T14:15:59.212Z,3.53
2017-05-23T14:18:27.537Z,4.37
2017-05-23T14:20:55.814Z,2.93
2017-05-23T14:23:24.126Z,3.17
2017-05-23T14:25:52.414Z,3.28
2017-05-23T14:28:20.740Z,3.37
2017-05-23T14:30:49.061Z,2.92
2017-05-23T14:33:17.379Z,3.20
2017-05-23T14:35:45.662Z,3.22
2017-05-23T14:38:14.006Z,3.38
2017-05-23T14:40:42.327Z,3.13
2017-05-23T14:43:10.681Z,3.40
2017-05-23T14:45:38.996Z,4.42
2017-05-23T14:48:07.354Z,3.52
2017-05-23T14:50:35.629Z,3.53
2017-05-23T14:53:03.899Z,3.27
2017-05-23T14:55:32.255Z,4.08
2017-05-23T14:58:00.522Z,3.20
2017-05-23T15:00:28.805Z,3.52
2017-05-23T15:02:57.099Z,4.18
2017-05-23T15:05:25.360Z,3.45
2017-05-23T15:07:53.658Z,3.92
2017-05-23T15:10:21.950Z,3.07
2017-05-23T15:12:50.220Z,3.45
2017-05-23T15:15:18.680Z,3.73
2017-05-23T15:17:46.963Z,3.22
2017-05-23T15:20:15.251Z,3.38
2017-05-23T15:22:43.519Z,4.12
2017-05-23T15:25:11.799Z,3.32
2017-05-23T15:27:40.122Z,3.67
2017-05-23T15:30:08.445Z,3.20
2017-05-23T15:32:36.751Z,3.00
2017-05-23T15:35:04.302Z,3.63
2017-05-23T15:37:32.600Z,3.65
2017-05-23T15:40:00.886Z,3.48
2017-05-23T15:42:29.166Z,3.28
2017-05-23T15:44:57.463Z,3.67
2017-05-23T15:47:25.746Z,3.95
2017-05-23T15:49:54.017Z,3.62
2017-05-23T15:52:22.300Z,2.80
2017-05-23T15:54:50.598Z,3.62
2017-05-23T15:57:18.888Z,4.00
2017-05-23T15:59:46.417Z,4.02
2017-05-23T16:02:14.693Z,3.53
2017-05-23T16:04:43.115Z,3.52
2017-05-23T16:07:11.395Z,3.90
2017-05-23T16:09:38.979Z,3.62
2017-05-23T16:12:07.267Z,3.80
2017-05-23T16:14:36.119Z,4.20
2017-05-23T16:17:04.456Z,5.45
2017-05-23T16:19:32.870Z,3.73
2017-05-23T16:22:01.408Z,3.33
2017-05-23T16:24:29.695Z,3.60
2017-05-23T16:26:58.001Z,3.60
2017-05-23T16:29:25.551Z,3.40
2017-05-23T16:31:53.860Z,3.25
2017-05-23T16:34:22.145Z,2.75
2017-05-23T16:36:50.466Z,3.60
2017-05-23T16:39:18.744Z,3.37
2017-05-23T16:41:47.017Z,3.70
2017-05-23T16:44:15.319Z,3.50
2017-05-23T16:46:43.655Z,4.12
2017-05-23T16:49:12.045Z,4.68
2017-05-23T16:51:40.318Z,3.37
2017-05-23T16:54:08.605Z,3.50
2017-05-23T16:56:37.031Z,3.50
2017-05-23T16:59:05.328Z,3.37
2017-05-23T17:01:33.591Z,3.62
2017-05-23T17:04:01.910Z,3.08
2017-05-23T17:06:30.195Z,3.62
2017-05-23T17:08:58.485Z,4.13
2017-05-23T17:11:27.647Z,3.25
2017-05-23T17:13:55.942Z,3.88
2017-05-23T17:16:24.234Z,4.00
2017-05-23T17:18:52.514Z,3.35
2017-05-23T17:21:21.082Z,3.58
2017-05-23T17:23:49.387Z,3.70
2017-05-23T17:26:17.852Z,3.88
2017-05-23T17:28:46.130Z,4.47
2017-05-23T17:31:14.420Z,4.25
2017-05-23T17:33:42.691Z,3.92
2017-05-23T17:36:10.976Z,3.95
2017-05-23T17:38:39.291Z,4.23
2017-05-23T17:41:07.575Z,4.43
2017-05-23T17:43:35.964Z,4.65
2017-05-23T17:46:04.302Z,4.42
2017-05-23T17:48:31.844Z,4.28
2017-05-23T17:51:00.192Z,4.17
2017-05-23T17:53:28.489Z,5.25
2017-05-23T17:55:56.841Z,5.10
2017-05-23T17:58:25.563Z,7.20
2017-05-23T18:00:53.844Z,7.42
2017-05-23T18:03:22.386Z,6.60
2017-05-23T18:05:50.690Z,6.22
2017-05-23T18:08:18.960Z,6.55
2017-05-23T18:10:47.231Z,7.23
2017-05-23T18:13:15.605Z,7.23
2017-05-23T18:15:43.923Z,8.50
2017-05-23T18:18:12.215Z,7.68
2017-05-23T18:20:40.512Z,11.10
2017-05-23T18:23:08.806Z,11.13
2017-05-23T18:25:37.110Z,10.78
2017-05-23T18:28:05.622Z,12.88
2017-05-23T18:30:33.983Z,11.25
2017-05-23T18:33:02.369Z,10.07
2017-05-23T18:35:30.677Z,10.82
2017-05-23T18:37:58.953Z,10.98
2017-05-23T18:41:00.041Z,9.68
2017-05-23T18:46:30.108Z,9.92
2017-05-23T18:48:58.433Z,13.27
2017-05-23T18:51:26.841Z,11.27
2017-05-23T18:53:55.132Z,8.35
2017-05-23T18:56:23.424Z,7.63
2017-05-23T18:58:51.776Z,9.33
2017-05-23T19:01:20.115Z,10.45
2017-05-23T19:03:48.437Z,8.12
2017-05-23T19:06:16.831Z,9.33
2017-05-23T19:08:45.167Z,9.57
2017-05-23T19:11:13.652Z,9.28
2017-05-23T19:13:42.155Z,8.63
2017-05-23T19:16:10.473Z,8.97
2017-05-23T19:18:39.849Z,9.03
2017-05-23T19:21:11.580Z,8.57
2017-05-23T19:23:39.896Z,8.77
2017-05-23T19:26:08.235Z,8.40
2017-05-23T19:28:36.591Z,10.00
2017-05-23T19:31:04.900Z,10.43
2017-05-23T19:33:33.357Z,8.53
2017-05-23T19:36:01.680Z,8.47
2017-05-23T19:38:30.008Z,9.05
2017-05-23T19:40:58.380Z,8.38
2017-05-23T19:43:26.676Z,9.22
2017-05-23T19:45:55.199Z,8.83
2017-05-23T19:48:23.826Z,9.53
2017-05-23T19:50:52.285Z,8.70
2017-05-23T19:53:20.659Z,10.62
2017-05-23T19:55:48.956Z,9.97
2017-05-23T19:58:17.538Z,14.62
2017-05-23T20:00:45.861Z,10.12
2017-05-23T20:03:14.312Z,11.55
2017-05-23T20:05:42.608Z,11.18
2017-05-23T20:08:10.925Z,12.53
2017-05-23T20:10:39.247Z,13.42
2017-05-23T20:13:07.622Z,10.47
2017-05-23T20:15:35.934Z,11.22
2017-05-23T20:18:04.332Z,11.92
2017-05-23T20:20:32.647Z,12.22
2017-05-23T20:23:00.980Z,13.62
2017-05-23T20:25:29.352Z,11.58
2017-05-23T20:27:57.677Z,10.35
2017-05-23T20:30:26.170Z,10.82
2017-05-23T20:32:54.463Z,11.83
2017-05-23T20:35:22.753Z,14.38
2017-05-23T20:37:51.089Z,12.85
2017-05-23T20:40:19.372Z,12.53
2017-05-23T20:42:47.686Z,12.08
2017-05-23T20:45:16.021Z,12.57
2017-05-23T20:56:16.669Z,12.77
2017-05-23T20:58:45.047Z,12.87
2017-05-23T21:01:13.367Z,13.53
2017-05-23T21:03:41.812Z,13.03
2017-05-23T21:06:11.326Z,13.68
2017-05-23T21:08:39.683Z,13.45
2017-05-23T21:11:08.115Z,12.53
2017-05-23T21:13:37.242Z,14.98
2017-05-23T21:16:05.764Z,15.53
2017-05-23T21:18:34.062Z,13.68
2017-05-23T21:21:02.383Z,14.25
2017-05-23T21:23:30.769Z,14.30
2017-05-23T21:26:00.655Z,13.33
2017-05-23T21:28:29.008Z,13.57
2017-05-23T21:30:59.773Z,15.25
2017-05-23T21:33:28.052Z,15.00
2017-05-23T21:35:57.574Z,13.58
2017-05-23T21:38:25.885Z,10.82
2017-05-23T21:41:20.998Z,11.07
2017-05-23T21:43:49.410Z,9.78
2017-05-23T21:46:17.700Z,10.08
2017-05-23T21:48:46.018Z,9.85
2017-05-23T21:51:14.293Z,8.35
2017-05-23T21:53:42.583Z,9.98
2017-05-23T21:56:10.881Z,5.98
2017-05-23T21:58:42.114Z,10.58
2017-05-23T22:01:10.403Z,11.62
2017-05-23T22:03:38.683Z,10.43
2017-05-23T22:06:07.784Z,7.40
2017-05-23T22:08:36.153Z,9.35
2017-05-23T22:11:04.484Z,9.18
2017-05-23T22:13:32.768Z,10.52
2017-05-23T22:16:01.325Z,9.83
2017-05-23T22:18:31.264Z,10.95
2017-05-23T22:20:59.559Z,11.93
2017-05-23T22:23:27.111Z,10.65
2017-05-23T22:25:56.218Z,10.80
2017-05-23T22:28:24.651Z,9.98
2017-05-23T22:30:52.897Z,10.92
2017-05-23T22:33:21.944Z,12.60
2017-05-23T22:35:50.240Z,10.13
2017-05-23T22:38:18.528Z,11.18
2017-05-23T22:40:52.228Z,10.57
2017-05-23T22:43:22.467Z,12.05
2017-05-23T22:45:50.769Z,10.33
2017-05-23T22:48:19.072Z,10.75
2017-05-23T22:50:47.355Z,10.15
2017-05-23T22:53:15.741Z,9.72
2017-05-23T22:55:44.059Z,9.23
2017-05-23T22:58:12.399Z,6.58
2017-05-23T23:00:40.733Z,5.20
2017-05-23T23:03:09.019Z,6.68
2017-05-23T23:05:39.189Z,6.43
2017-05-23T23:08:07.524Z,7.20
2017-05-23T23:10:36.828Z,4.98
2017-05-23T23:13:05.120Z,4.88
2017-05-23T23:15:33.399Z,5.57
2017-05-23T23:18:02.531Z,3.85
2017-05-23T23:20:30.797Z,2.40
2017-05-23T23:22:59.149Z,3.67
2017-05-23T23:25:27.431Z,3.78
2017-05-23T23:27:58.299Z,4.08
2017-05-23T23:30:26.663Z,5.73
2017-05-23T23:32:54.967Z,3.42
2017-05-23T23:35:23.277Z,3.57
2017-05-23T23:37:51.561Z,4.15
2017-05-23T23:40:19.838Z,6.70
2017-05-23T23:42:48.129Z,4.63
2017-05-23T23:45:16.565Z,6.97
2017-05-23T23:47:44.859Z,4.55
2017-05-23T23:50:13.123Z,4.65
2017-05-23T23:52:41.415Z,4.55
2017-05-23T23:55:09.679Z,3.42
2017-05-23T23:57:39.222Z,4.63
